MUHGMUGM

Guest
Details From MUHG - FRANK PAIS INTL
To MUGM - Guantanamo Bay Ns
Flight Number -
Tags generated
Created
Modified
Stats Distance 83 nm / 153 km
Max Altitude 100 ft / 30 m
Waypoints 3
Social Downloads 0
Likes 0
Share VATSIM

Download

Looking for another format? Having issues loading an existing format? Contact us
Advertisement - Login to hide

Notes

Basic altitude profile: - Ascent Rate: 2500ft/min - Ascent Speed: 250kts - Cruise Altitude: 35000ft - Cruise Speed: 420kts - Descent Rate: 1500ft/min - Descent Speed: 250kts Options: - Use NATs: yes - Use PACOTS: yes - Use low airways: yes - Use high airways: yes

Route

MUHG NBW MUGM

ID Type Via Altitude Latitude Longitude Leg Dist Tot Dist Heading (true) Name
O MUHG APT - 0 ft / 0 m 20.78555˚ -76.31511˚ - 0 nm - FRANK PAIS INTL
NBW VOR - 100 ft / 30 m 19.90453˚ -75.19879˚ 82 nm 82 nm 130° / 130° GUANTANAMO BAY NS VOR
O MUGM APT - 0 ft / 0 m 19.90646˚ -75.20706˚ 0 nm 82 nm 284° / 284° Guantanamo Bay Ns

Altitude Profile

Advertisement - Login to hide

MUHG

Details ICAO MUHG (HOG)
Name FRANK PAIS INTL
Region Cuba
Timezone America/Havana (UTC-5.0)
Stats Elevation 361 ft / 110 m (AMSL)
Location 20.785554° -76.315108°
Runways 1
Magnetic Variation 8.245° W

METAR

MUHG 142150Z 07008KT 9000 SCT020 BKN090 24/20 Q1016

Decode

TAF

Not found

Departure Runways

ID Width Length Bearing (true) Bearing (mag) Surface Threshold Offset Overrun Length
05 148 ft / 45 m 10,642 ft / 3,244 m 46.12° 54.36° Asphalt 328 ft / 100 m 290 ft / 88 m
23 148 ft / 45 m 10,642 ft / 3,244 m 226.12° 234.36° Asphalt 0 ft / 0 m 0 ft / 0 m

MUGM

Details ICAO MUGM
Name Guantanamo Bay Ns
Region Cuba
Timezone Unknown (UTC+0.0)
Stats Elevation 56 ft / 17 m (AMSL)
Location 19.906458° -75.207055°
Runways 1
Magnetic Variation 8.753° W

METAR

MUGM 142156Z 36004KT 9999 FEW030 BKN055 28/23 A2997 RMK SLP150 T02780233

Decode

TAF

TAF MUGM 1415/1515 36010KT 9999 FEW030 SCT075 BKN100 QNH3000INS BECMG 1416/1418 09013KT 9999 VCSH SCT030 BKN075 BKN095 QNH2992INS BECMG 1422/1500 03011KT 9999 SCT030 SCT045 BKN090 QNH2995INS FM150500 35009KT 9999 FEW030 FEW120 SCT250 QNH2996INS T29/1418Z T22/1511Z FN20024

Decode

Destination Runways

ID Width Length Bearing (true) Bearing (mag) Surface Threshold Offset Overrun Length
10 200 ft / 61 m 7,988 ft / 2,435 m 91.09° 99.84° Asphalt 100 ft / 30 m 150 ft / 46 m
28 200 ft / 61 m 7,988 ft / 2,435 m 271.10° 279.85° Asphalt 100 ft / 30 m 150 ft / 46 m